Time;durP1;ratioP1;P1;durP2;ratioP2;P2;SDS_P1;SDS_P2;PMS_P1;PMS_P2;Temp;Humidity;BMP_temperature;BMP_pressure;BME280_temperature;BME280_humidity;BME280_pressure;Samples;Min_cycle;Max_cycle;Signal;HPM_P1;HPM_P2
2021/06/12 00:01:20;;;;;;;9.63;6.00;;;19.30;75.50;;;;;;5137627;27;20106;-35
2021/06/12 00:03:46;;;;;;;8.50;4.82;;;19.40;75.30;;;;;;5136156;27;20359;-36
2021/06/12 00:06:11;;;;;;;10.25;5.97;;;19.40;75.30;;;;;;5137219;27;20038;-37
2021/06/12 00:08:37;;;;;;;7.95;4.35;;;19.40;75.50;;;;;;5137334;27;20493;-36
2021/06/12 00:11:03;;;;;;;11.57;4.95;;;19.30;75.90;;;;;;5137405;27;20058;-36
2021/06/12 00:13:30;;;;;;;7.38;5.18;;;19.20;76.40;;;;;;5135937;27;20043;-37
2021/06/12 00:15:56;;;;;;;6.57;5.05;;;19.30;75.90;;;;;;5137096;27;20463;-36
2021/06/12 00:18:23;;;;;;;8.25;5.50;;;19.30;76.40;;;;;;5137554;27;20019;-36
2021/06/12 00:20:53;;;;;;;7.65;5.13;;;19.30;76.40;;;;;;5136097;27;20027;-36
2021/06/12 00:23:19;;;;;;;8.18;5.32;;;19.30;76.20;;;;;;5137142;27;20019;-38
2021/06/12 00:25:45;;;;;;;10.48;5.65;;;19.30;76.20;;;;;;5136657;27;20088;-36
2021/06/12 00:28:10;;;;;;;9.30;6.05;;;19.30;76.10;;;;;;5137466;27;20025;-36
2021/06/12 00:30:36;;;;;;;6.72;5.57;;;19.40;75.70;;;;;;5136763;27;20028;-36
2021/06/12 00:33:03;;;;;;;11.77;6.00;;;19.30;76.30;;;;;;5137015;27;20019;-36
2021/06/12 00:35:29;;;;;;;7.45;5.10;;;19.30;76.30;;;;;;5136871;27;20020;-37
2021/06/12 00:37:55;;;;;;;9.52;5.93;;;19.30;76.50;;;;;;5135283;27;20071;-37
2021/06/12 00:40:21;;;;;;;9.45;6.47;;;19.30;76.70;;;;;;5136786;27;20023;-36
2021/06/12 00:42:48;;;;;;;9.98;5.35;;;19.30;76.70;;;;;;5136452;27;20098;-37
2021/06/12 00:45:19;;;;;;;10.05;6.10;;;19.30;76.70;;;;;;5136336;27;20023;-36
2021/06/12 00:47:49;;;;;;;11.48;5.90;;;19.10;77.30;;;;;;5136827;27;20053;-36
2021/06/12 00:50:17;;;;;;;7.28;6.00;;;19.30;77.20;;;;;;5136531;27;20023;-36
2021/06/12 00:52:43;;;;;;;12.25;8.15;;;19.50;76.40;;;;;;5136357;27;20479;-36
2021/06/12 00:55:11;;;;;;;10.13;6.82;;;19.40;76.60;;;;;;5136588;27;20027;-36
2021/06/12 00:57:37;;;;;;;9.50;6.97;;;19.50;76.40;;;;;;5136335;27;20072;-36
2021/06/12 01:00:10;;;;;;;13.90;7.90;;;19.40;76.50;;;;;;5136323;27;20374;-36
2021/06/12 01:02:36;;;;;;;13.63;9.02;;;19.40;76.90;;;;;;5135112;27;20035;-37
2021/06/12 01:05:04;;;;;;;12.20;8.55;;;19.50;76.50;;;;;;5134931;27;20023;-36
2021/06/12 01:07:30;;;;;;;11.70;7.80;;;19.40;77.00;;;;;;5136061;27;20019;-36
2021/06/12 01:09:55;;;;;;;12.65;8.15;;;19.60;76.70;;;;;;5134401;27;20106;-36
2021/06/12 01:12:49;;;;;;;13.32;8.10;;;19.60;76.70;;;;;;5135921;27;20071;-36
2021/06/12 01:15:16;;;;;;;14.65;7.75;;;19.50;77.10;;;;;;5134614;27;20075;-36
2021/06/12 01:18:02;;;;;;;11.23;8.68;;;19.50;77.00;;;;;;5136111;27;20069;-36
2021/06/12 01:20:49;;;;;;;11.98;7.20;;;19.50;77.50;;;;;;5135820;27;20110;-36
2021/06/12 01:23:24;;;;;;;15.35;7.47;;;19.50;77.50;;;;;;5135894;27;20467;-36
2021/06/12 01:26:06;;;;;;;14.85;8.20;;;19.50;77.50;;;;;;5135392;27;20075;-36
2021/06/12 01:28:41;;;;;;;13.77;8.30;;;19.40;77.90;;;;;;5135546;27;20466;-36
2021/06/12 01:31:09;;;;;;;12.45;7.57;;;19.50;77.60;;;;;;5135486;27;20059;-36
2021/06/12 01:33:38;;;;;;;15.40;8.05;;;19.60;77.30;;;;;;5135608;27;20023;-36
2021/06/12 01:36:06;;;;;;;13.88;8.10;;;19.50;77.60;;;;;;5135519;27;20015;-36
2021/06/12 01:38:35;;;;;;;9.65;7.00;;;19.70;77.10;;;;;;5135444;27;20026;-36
2021/06/12 01:41:04;;;;;;;9.93;7.13;;;19.60;77.40;;;;;;5134509;27;20370;-36
2021/06/12 01:43:32;;;;;;;11.43;6.90;;;19.70;77.10;;;;;;5135439;27;20034;-36
2021/06/12 01:45:59;;;;;;;10.63;7.07;;;19.50;77.80;;;;;;5135335;27;20027;-36
2021/06/12 01:48:25;;;;;;;12.20;5.85;;;19.60;77.70;;;;;;5135717;27;20030;-37
2021/06/12 01:50:52;;;;;;;11.25;7.28;;;19.60;78.00;;;;;;5135593;27;20486;-36
2021/06/12 01:53:21;;;;;;;11.45;6.88;;;19.60;77.70;;;;;;5135530;27;20051;-36
2021/06/12 01:55:49;;;;;;;19.45;6.80;;;19.60;78.00;;;;;;5135337;27;20387;-37
2021/06/12 01:58:23;;;;;;;12.18;7.03;;;19.70;77.70;;;;;;5133995;27;20104;-37
2021/06/12 02:00:49;;;;;;;11.13;6.78;;;19.50;78.30;;;;;;5135523;27;20035;-41
2021/06/12 02:03:16;;;;;;;10.77;6.60;;;19.60;78.00;;;;;;5135233;27;20055;-36
2021/06/12 02:05:44;;;;;;;8.32;6.05;;;19.60;78.10;;;;;;5135205;27;20054;-36
2021/06/12 02:08:10;;;;;;;10.75;7.70;;;19.50;78.30;;;;;;5135151;27;20124;-36
2021/06/12 02:10:38;;;;;;;8.27;6.32;;;19.70;77.90;;;;;;5135119;27;20386;-37
2021/06/12 02:13:04;;;;;;;8.88;6.97;;;19.50;78.30;;;;;;5133761;27;20012;-37
2021/06/12 02:15:31;;;;;;;12.77;7.32;;;19.60;78.00;;;;;;5134876;27;20025;-36
2021/06/12 02:18:03;;;;;;;14.27;8.63;;;19.50;78.30;;;;;;5135023;27;20465;-36
2021/06/12 02:20:30;;;;;;;13.30;7.43;;;19.40;78.60;;;;;;5134909;27;20020;-36
2021/06/12 02:22:56;;;;;;;11.35;6.63;;;19.30;79.10;;;;;;5134648;27;20027;-36
2021/06/12 02:25:23;;;;;;;9.23;6.68;;;19.30;79.00;;;;;;5134441;27;20100;-36
2021/06/12 02:27:53;;;;;;;11.98;7.20;;;19.20;79.00;;;;;;5134916;27;20065;-36
2021/06/12 02:30:22;;;;;;;11.32;7.13;;;19.10;79.50;;;;;;5134787;27;20059;-36
2021/06/12 02:32:54;;;;;;;13.27;7.70;;;19.10;79.60;;;;;;5134840;27;20099;-36
2021/06/12 02:35:20;;;;;;;10.20;6.90;;;19.00;79.90;;;;;;5134784;27;20075;-36
2021/06/12 02:37:46;;;;;;;10.35;6.65;;;19.00;79.90;;;;;;5133217;27;20382;-36
2021/06/12 02:40:12;;;;;;;10.43;6.88;;;18.90;80.10;;;;;;5134488;27;20031;-37
2021/06/12 02:42:38;;;;;;;9.50;6.40;;;18.80;80.30;;;;;;5134698;27;20474;-37
2021/06/12 02:45:08;;;;;;;14.23;8.90;;;18.80;80.20;;;;;;5132714;27;20030;-37
2021/06/12 02:47:46;;;;;;;13.23;6.57;;;18.80;80.20;;;;;;5134667;27;20034;-37
2021/06/12 02:50:13;;;;;;;8.30;6.50;;;18.90;79.60;;;;;;5134325;27;20031;-37
2021/06/12 02:52:41;;;;;;;12.50;7.50;;;18.80;79.60;;;;;;5134416;27;20140;-37
2021/06/12 02:55:10;;;;;;;12.85;7.22;;;18.90;79.50;;;;;;5134586;27;20020;-37
2021/06/12 02:57:41;;;;;;;11.70;6.95;;;18.80;79.60;;;;;;5132974;28;20019;-39
2021/06/12 03:00:08;;;;;;;10.00;7.60;;;18.80;79.50;;;;;;5134607;27;20030;-44
2021/06/12 03:02:38;;;;;;;10.93;6.13;;;18.80;79.70;;;;;;5134372;27;20422;-35
2021/06/12 03:05:06;;;;;;;10.10;5.65;;;18.70;79.90;;;;;;5134120;27;20031;-37
2021/06/12 03:07:33;;;;;;;12.68;6.70;;;18.70;79.80;;;;;;5134083;27;20023;-37
2021/06/12 03:10:00;;;;;;;9.02;6.30;;;18.70;79.90;;;;;;5134078;27;20486;-37
2021/06/12 03:12:27;;;;;;;8.38;6.00;;;18.60;80.30;;;;;;5134433;27;20027;-37
2021/06/12 03:14:55;;;;;;;9.35;6.25;;;18.40;80.60;;;;;;5134118;27;20076;-37
2021/06/12 03:17:20;;;;;;;10.13;6.22;;;18.40;80.70;;;;;;5134063;27;20019;-37
2021/06/12 03:19:47;;;;;;;8.45;5.80;;;18.30;81.00;;;;;;5134057;27;20517;-37
2021/06/12 03:22:14;;;;;;;10.45;5.90;;;18.50;80.80;;;;;;5133972;27;20030;-37
2021/06/12 03:24:41;;;;;;;9.32;6.35;;;18.30;80.80;;;;;;5133832;27;20129;-37
2021/06/12 03:27:07;;;;;;;12.60;5.93;;;18.30;80.70;;;;;;5134257;27;20443;-37
2021/06/12 03:29:34;;;;;;;8.68;6.22;;;18.30;80.90;;;;;;5133883;27;20118;-37
2021/06/12 03:32:00;;;;;;;12.65;6.18;;;18.30;81.10;;;;;;5133891;27;20081;-37
2021/06/12 03:34:27;;;;;;;8.38;6.95;;;18.30;81.00;;;;;;5134016;27;20043;-37
2021/06/12 03:36:54;;;;;;;14.40;6.10;;;18.20;81.40;;;;;;5132702;28;20152;-35
2021/06/12 03:39:20;;;;;;;9.23;6.25;;;18.20;81.40;;;;;;5133946;27;20410;-35
2021/06/12 03:41:46;;;;;;;9.77;6.88;;;18.20;81.50;;;;;;5134056;27;20023;-37
2021/06/12 03:44:13;;;;;;;8.07;5.85;;;18.30;81.10;;;;;;5134122;27;20034;-36
2021/06/12 03:46:41;;;;;;;10.60;6.82;;;18.20;81.00;;;;;;5133829;27;20075;-35
2021/06/12 03:49:09;;;;;;;10.90;6.88;;;18.30;80.70;;;;;;5133817;27;20024;-35
2021/06/12 03:51:36;;;;;;;12.10;7.35;;;18.30;80.60;;;;;;5133879;27;20031;-36
2021/06/12 03:54:02;;;;;;;10.50;6.57;;;18.20;81.20;;;;;;5133273;28;20019;-35
2021/06/12 03:56:34;;;;;;;8.60;6.80;;;18.20;81.00;;;;;;5134746;27;20019;-35
2021/06/12 03:59:01;;;;;;;15.18;7.03;;;18.20;80.90;;;;;;5137423;27;20122;-35
2021/06/12 04:01:26;;;;;;;9.93;6.47;;;18.30;80.40;;;;;;5137376;27;20027;-35
2021/06/12 04:03:52;;;;;;;9.93;6.50;;;18.40;80.10;;;;;;5137275;27;20378;-36
2021/06/12 04:06:19;;;;;;;10.80;7.10;;;18.40;79.90;;;;;;5137227;27;20072;-35
2021/06/12 04:08:48;;;;;;;8.13;6.47;;;18.40;79.90;;;;;;5137163;27;20019;-36
2021/06/12 04:11:14;;;;;;;12.57;7.18;;;18.30;80.40;;;;;;5136531;27;20035;-36
2021/06/12 04:13:40;;;;;;;10.65;6.75;;;18.30;80.50;;;;;;5137030;27;20042;-36
2021/06/12 04:16:08;;;;;;;11.85;6.63;;;18.30;80.40;;;;;;5137130;27;20019;-36
2021/06/12 04:18:34;;;;;;;9.95;6.63;;;18.40;80.00;;;;;;5137028;27;20030;-36
2021/06/12 04:21:00;;;;;;;10.10;6.20;;;18.40;79.90;;;;;;5137145;27;20027;-37
2021/06/12 04:23:26;;;;;;;11.20;6.72;;;18.50;79.40;;;;;;5137037;27;20023;-38
2021/06/12 04:25:51;;;;;;;9.68;5.88;;;18.50;79.50;;;;;;5136689;27;20049;-35
2021/06/12 04:28:17;;;;;;;8.77;6.53;;;18.40;79.30;;;;;;5136840;27;20492;-36
2021/06/12 04:30:43;;;;;;;12.32;5.70;;;18.50;79.10;;;;;;5137102;27;20027;-36
2021/06/12 04:33:09;;;;;;;8.30;5.15;;;18.50;78.90;;;;;;5136786;27;20107;-36
2021/06/12 04:35:35;;;;;;;16.05;6.10;;;18.50;78.60;;;;;;5136932;27;20520;-36
2021/06/12 04:38:01;;;;;;;13.20;5.30;;;18.70;78.10;;;;;;5137026;27;20046;-36
2021/06/12 04:40:29;;;;;;;12.15;5.53;;;18.80;77.80;;;;;;5137142;27;20083;-36
2021/06/12 04:42:55;;;;;;;8.35;5.00;;;18.80;77.40;;;;;;5136547;27;20109;-36
2021/06/12 04:45:21;;;;;;;9.80;4.35;;;18.80;77.10;;;;;;5137073;27;20103;-36
2021/06/12 04:47:47;;;;;;;10.90;5.05;;;18.70;77.60;;;;;;5135630;27;20027;-36
2021/06/12 04:50:14;;;;;;;9.38;5.15;;;18.70;77.70;;;;;;5136870;27;20490;-36
2021/06/12 04:52:40;;;;;;;7.28;4.63;;;18.70;77.30;;;;;;5136236;27;20030;-36
2021/06/12 04:55:07;;;;;;;9.80;4.70;;;18.70;77.60;;;;;;5135075;27;20030;-36
2021/06/12 04:57:33;;;;;;;9.38;4.72;;;18.80;77.10;;;;;;5136153;27;20023;-36
2021/06/12 04:59:59;;;;;;;8.32;4.82;;;18.80;77.00;;;;;;5136530;27;20098;-36
2021/06/12 05:02:25;;;;;;;8.73;4.40;;;18.80;76.90;;;;;;5136391;27;20015;-36
2021/06/12 05:04:50;;;;;;;10.55;5.32;;;18.80;77.40;;;;;;5136433;27;20016;-36
2021/06/12 05:07:16;;;;;;;7.38;4.88;;;19.00;76.60;;;;;;5135988;27;20023;-36
2021/06/12 05:09:42;;;;;;;8.07;4.88;;;19.00;76.70;;;;;;5136220;27;20022;-36
2021/06/12 05:12:08;;;;;;;7.72;5.00;;;19.20;76.20;;;;;;5136335;27;20027;-36
2021/06/12 05:14:34;;;;;;;15.80;5.63;;;19.30;75.90;;;;;;5134785;27;20095;-36
2021/06/12 05:17:03;;;;;;;14.35;5.97;;;19.10;76.70;;;;;;5134962;27;20030;-36
2021/06/12 05:19:28;;;;;;;16.85;6.05;;;19.20;76.40;;;;;;5135752;27;20015;-36
2021/06/12 05:21:54;;;;;;;8.57;5.45;;;19.20;76.40;;;;;;5134228;27;20027;-36
2021/06/12 05:24:20;;;;;;;10.48;5.20;;;19.20;76.00;;;;;;5135909;27;20039;-36
2021/06/12 05:26:46;;;;;;;12.18;6.07;;;19.20;76.20;;;;;;5135768;27;20030;-36
2021/06/12 05:29:11;;;;;;;9.02;5.40;;;19.00;76.90;;;;;;5135376;27;20031;-36
2021/06/12 05:31:37;;;;;;;9.10;5.18;;;19.00;77.00;;;;;;5135540;27;20042;-36
2021/06/12 05:34:03;;;;;;;13.85;5.32;;;19.00;77.20;;;;;;5135922;27;20019;-36
2021/06/12 05:36:31;;;;;;;7.57;5.32;;;19.00;77.40;;;;;;5135483;27;20075;-36
2021/06/12 05:38:57;;;;;;;13.45;6.25;;;19.10;77.40;;;;;;5135497;27;20462;-37
2021/06/12 05:41:23;;;;;;;9.82;6.35;;;19.10;77.50;;;;;;5133871;27;20079;-36
2021/06/12 05:43:48;;;;;;;11.50;6.85;;;19.00;77.70;;;;;;5135245;27;20470;-36
2021/06/12 05:46:14;;;;;;;13.70;6.53;;;18.90;78.00;;;;;;5135174;27;20505;-36
2021/06/12 05:48:40;;;;;;;19.00;8.20;;;19.00;77.80;;;;;;5135608;27;20034;-37
2021/06/12 05:51:05;;;;;;;8.88;6.40;;;19.10;77.50;;;;;;5135425;27;20156;-37
2021/06/12 05:53:31;;;;;;;15.00;8.45;;;19.30;77.10;;;;;;5135627;27;20098;-36
2021/06/12 05:55:57;;;;;;;12.75;6.85;;;19.40;76.50;;;;;;5134148;27;20019;-37
2021/06/12 05:58:23;;;;;;;11.55;7.78;;;19.70;75.90;;;;;;5135181;27;20011;-36
2021/06/12 06:00:48;;;;;;;14.52;7.15;;;20.00;74.90;;;;;;5134163;27;20149;-36
2021/06/12 06:03:14;;;;;;;13.30;7.03;;;19.80;75.20;;;;;;5135189;27;20030;-36
2021/06/12 06:05:40;;;;;;;10.27;6.60;;;19.80;75.70;;;;;;5134982;27;20084;-36
2021/06/12 06:08:05;;;;;;;13.65;7.20;;;19.70;76.00;;;;;;5135003;27;20106;-36
2021/06/12 06:10:31;;;;;;;24.33;10.98;;;19.80;75.90;;;;;;5134878;27;20448;-37
2021/06/12 06:13:05;;;;;;;12.40;6.40;;;19.90;75.60;;;;;;5135007;27;20493;-37
2021/06/12 06:15:31;;;;;;;12.52;7.43;;;20.10;75.20;;;;;;5135471;27;20473;-36
2021/06/12 06:17:57;;;;;;;13.02;7.63;;;20.30;74.50;;;;;;5134835;27;20023;-37
2021/06/12 06:20:22;;;;;;;10.73;7.45;;;20.30;74.20;;;;;;5134161;27;20016;-37
2021/06/12 06:22:48;;;;;;;16.65;7.50;;;20.10;74.40;;;;;;5133409;27;20046;-37
2021/06/12 06:25:14;;;;;;;12.07;8.77;;;19.80;75.60;;;;;;5134421;27;20542;-36
2021/06/12 06:27:40;;;;;;;13.38;7.97;;;19.80;75.60;;;;;;5134507;27;20080;-36
2021/06/12 06:30:07;;;;;;;14.85;9.63;;;19.50;76.80;;;;;;5134791;27;20058;-35
2021/06/12 06:32:33;;;;;;;14.95;9.73;;;19.30;77.70;;;;;;5134661;27;20015;-35
2021/06/12 06:34:59;;;;;;;15.45;9.82;;;19.30;77.70;;;;;;5134216;27;20030;-35
2021/06/12 06:37:25;;;;;;;19.30;10.70;;;19.40;77.40;;;;;;5134489;27;20486;-36
2021/06/12 06:39:51;;;;;;;20.33;10.60;;;19.40;77.10;;;;;;5132943;27;20019;-36
2021/06/12 06:42:16;;;;;;;22.10;11.57;;;19.50;77.10;;;;;;5134253;27;20064;-37
2021/06/12 06:44:42;;;;;;;12.82;10.13;;;19.80;76.30;;;;;;5134442;27;20027;-36
2021/06/12 06:47:08;;;;;;;15.00;10.35;;;19.80;76.00;;;;;;5132975;28;20107;-36
2021/06/12 06:49:37;;;;;;;19.70;10.35;;;19.60;76.60;;;;;;5134015;28;20019;-36
2021/06/12 06:52:06;;;;;;;19.73;12.10;;;19.50;77.00;;;;;;5134336;27;20394;-36
2021/06/12 06:54:32;;;;;;;20.65;11.95;;;19.20;78.20;;;;;;5134103;27;20366;-37
2021/06/12 06:56:57;;;;;;;17.13;11.88;;;19.30;77.70;;;;;;5134094;27;20023;-37
2021/06/12 06:59:23;;;;;;;22.13;13.57;;;19.00;78.80;;;;;;5134680;28;20020;-37
2021/06/12 07:01:49;;;;;;;17.10;13.60;;;18.90;78.90;;;;;;5135618;28;20019;-36
2021/06/12 07:04:14;;;;;;;18.48;13.32;;;18.70;79.70;;;;;;5134344;27;20026;-37
2021/06/12 07:06:40;;;;;;;20.48;14.57;;;18.60;80.00;;;;;;5134425;27;20501;-36
2021/06/12 07:09:06;;;;;;;19.80;13.23;;;18.60;80.10;;;;;;5133354;28;20061;-35
2021/06/12 07:11:32;;;;;;;21.60;13.35;;;18.60;80.10;;;;;;5133770;28;20055;-36
2021/06/12 07:13:58;;;;;;;19.80;14.27;;;18.60;80.00;;;;;;5133836;28;20545;-37
2021/06/12 07:16:23;;;;;;;20.90;12.75;;;18.70;79.70;;;;;;5133966;28;20377;-36
2021/06/12 07:18:49;;;;;;;23.55;13.88;;;18.80;79.40;;;;;;5133808;28;20011;-37
2021/06/12 07:21:14;;;;;;;20.40;13.38;;;18.90;79.10;;;;;;5133533;28;20455;-36
2021/06/12 07:23:40;;;;;;;16.20;12.75;;;18.80;79.30;;;;;;5133322;28;20034;-36
2021/06/12 07:26:06;;;;;;;21.05;14.18;;;18.90;78.80;;;;;;5133332;28;20043;-36
2021/06/12 07:28:32;;;;;;;21.02;14.77;;;18.90;79.00;;;;;;5132604;28;20470;-37
2021/06/12 07:30:57;;;;;;;20.00;14.90;;;18.80;79.00;;;;;;5135997;27;20032;-35
2021/06/12 07:33:23;;;;;;;22.90;16.08;;;18.80;79.30;;;;;;5137588;27;20015;-36
2021/06/12 07:35:50;;;;;;;23.85;18.15;;;18.80;79.30;;;;;;5137822;27;20112;-37
2021/06/12 07:38:15;;;;;;;22.13;17.50;;;18.70;79.40;;;;;;5136324;27;20026;-37
2021/06/12 07:40:43;;;;;;;28.60;18.88;;;18.80;78.90;;;;;;5137537;27;20102;-36
2021/06/12 07:43:09;;;;;;;22.08;16.63;;;18.80;79.40;;;;;;5137762;27;20033;-37
2021/06/12 07:45:35;;;;;;;23.13;16.80;;;18.90;78.90;;;;;;5137582;27;20390;-36
2021/06/12 07:48:00;;;;;;;24.10;17.30;;;18.90;78.80;;;;;;5137785;27;20031;-37
2021/06/12 07:50:26;;;;;;;24.33;15.45;;;19.00;78.80;;;;;;5137266;27;20020;-37
2021/06/12 07:52:52;;;;;;;19.52;14.40;;;19.00;78.90;;;;;;5137203;27;20374;-37
2021/06/12 07:55:18;;;;;;;19.98;15.75;;;19.20;78.20;;;;;;5137010;27;20022;-37
2021/06/12 07:57:44;;;;;;;21.45;15.50;;;19.30;77.60;;;;;;5137051;27;20027;-38
2021/06/12 08:00:10;;;;;;;23.05;17.00;;;19.30;78.00;;;;;;5137315;27;20019;-36
2021/06/12 08:02:37;;;;;;;21.50;15.05;;;18.90;79.30;;;;;;5135817;27;20023;-37
2021/06/12 08:05:04;;;;;;;23.80;17.95;;;18.80;79.30;;;;;;5135985;27;20359;-36
2021/06/12 08:07:30;;;;;;;27.25;17.35;;;18.70;78.90;;;;;;5135795;27;20411;-37
2021/06/12 08:09:56;;;;;;;23.67;18.67;;;18.60;79.60;;;;;;5137472;27;20057;-38
2021/06/12 08:12:22;;;;;;;24.35;18.13;;;18.60;79.40;;;;;;5138055;27;20061;-38
2021/06/12 08:14:49;;;;;;;22.25;17.48;;;18.70;79.30;;;;;;5136966;27;20072;-36
2021/06/12 08:17:15;;;;;;;21.42;17.77;;;18.70;79.20;;;;;;5135676;27;20026;-37
2021/06/12 08:19:41;;;;;;;24.05;18.40;;;18.70;79.60;;;;;;5137094;27;20099;-37
2021/06/12 08:22:07;;;;;;;24.23;18.40;;;18.80;79.20;;;;;;5136930;27;20030;-37
2021/06/12 08:24:34;;;;;;;23.15;18.83;;;18.80;79.10;;;;;;5136641;27;20555;-37
2021/06/12 08:27:00;;;;;;;19.90;16.50;;;18.90;78.30;;;;;;5135810;27;20423;-36
2021/06/12 08:29:26;;;;;;;21.48;17.70;;;19.20;77.40;;;;;;5136756;27;20030;-37
2021/06/12 08:31:51;;;;;;;20.65;17.15;;;19.30;76.80;;;;;;5135778;27;20031;-37
2021/06/12 08:34:17;;;;;;;17.35;15.48;;;19.80;75.10;;;;;;5136770;27;20107;-37
2021/06/12 08:36:43;;;;;;;19.38;13.13;;;20.30;73.20;;;;;;5136882;27;20023;-38
2021/06/12 08:39:08;;;;;;;20.23;13.43;;;20.70;71.80;;;;;;5136759;27;20019;-37
2021/06/12 08:41:34;;;;;;;16.80;12.52;;;21.30;69.60;;;;;;5135930;27;20029;-38
2021/06/12 08:44:01;;;;;;;17.63;13.57;;;20.90;70.40;;;;;;5134532;27;20062;-39
2021/06/12 08:46:28;;;;;;;20.25;13.73;;;21.00;70.20;;;;;;5136426;27;20023;-37
2021/06/12 08:48:54;;;;;;;17.30;14.38;;;21.20;69.50;;;;;;5134928;27;20466;-37
2021/06/12 08:51:20;;;;;;;17.05;14.57;;;21.30;69.50;;;;;;5136430;27;20034;-39
2021/06/12 08:53:48;;;;;;;20.23;15.52;;;20.50;71.50;;;;;;5136143;27;20016;-37
2021/06/12 08:56:14;;;;;;;17.83;15.13;;;20.80;70.30;;;;;;5135648;27;20039;-39
2021/06/12 08:58:40;;;;;;;17.75;14.68;;;20.80;71.00;;;;;;5135769;27;20030;-37
2021/06/12 09:01:05;;;;;;;20.33;15.02;;;20.90;70.70;;;;;;5136591;27;20023;-37
2021/06/12 09:03:43;;;;;;;19.35;13.88;;;21.30;69.20;;;;;;5135725;27;20023;-38
2021/06/12 09:06:10;;;;;;;15.80;13.13;;;22.00;67.20;;;;;;5136051;27;20371;-36
2021/06/12 09:08:41;;;;;;;22.63;14.07;;;21.40;67.40;;;;;;5136206;27;20378;-38
2021/06/12 09:11:13;;;;;;;19.38;13.98;;;20.90;69.70;;;;;;5134354;27;20027;-37
2021/06/12 09:13:49;;;;;;;16.40;12.35;;;20.70;71.00;;;;;;5135770;27;20024;-37
2021/06/12 09:16:35;;;;;;;17.77;13.23;;;20.50;71.30;;;;;;5135868;27;20015;-38
2021/06/12 09:19:14;;;;;;;17.58;13.82;;;20.90;70.20;;;;;;5135772;27;20042;-37
2021/06/12 09:21:43;;;;;;;16.95;14.27;;;21.10;69.70;;;;;;5134495;27;20069;-37
2021/06/12 09:24:31;;;;;;;17.48;12.48;;;21.00;69.90;;;;;;5135532;27;20096;-36
2021/06/12 09:26:59;;;;;;;18.67;13.95;;;20.90;69.60;;;;;;5140740;27;20038;-37
2021/06/12 09:29:43;;;;;;;16.52;13.75;;;21.00;68.90;;;;;;5136639;27;20423;-36
2021/06/12 09:32:22;;;;;;;15.57;13.40;;;21.70;67.10;;;;;;5135581;27;20027;-43
2021/06/12 09:34:50;;;;;;;15.20;13.20;;;21.70;65.70;;;;;;5136274;27;20020;-38
2021/06/12 09:37:19;;;;;;;14.95;13.35;;;21.50;67.10;;;;;;5135896;27;20040;-37
2021/06/12 09:40:15;;;;;;;16.73;14.93;;;21.40;67.60;;;;;;5135492;27;20026;-38
2021/06/12 09:42:55;;;;;;;18.38;14.75;;;21.40;67.00;;;;;;5113745;27;20509;-37
2021/06/12 09:45:32;;;;;;;19.33;14.70;;;21.80;65.90;;;;;;5134603;27;20478;-37
2021/06/12 09:48:17;;;;;;;16.83;14.75;;;21.80;66.00;;;;;;5140060;27;20030;-37
2021/06/12 09:50:45;;;;;;;15.50;13.07;;;21.30;67.00;;;;;;5134659;27;20025;-37
2021/06/12 09:53:16;;;;;;;18.13;13.98;;;21.90;64.80;;;;;;5135746;27;20362;-38
2021/06/12 09:55:43;;;;;;;19.92;13.00;;;21.50;66.40;;;;;;5135665;27;20114;-37
2021/06/12 09:58:09;;;;;;;16.02;12.57;;;22.10;64.50;;;;;;5137331;27;20051;-38
2021/06/12 10:00:35;;;;;;;16.60;13.35;;;22.50;63.30;;;;;;5135987;27;20098;-41
2021/06/12 10:03:01;;;;;;;18.98;14.02;;;22.70;62.90;;;;;;5135786;27;20115;-38
2021/06/12 10:05:27;;;;;;;15.95;13.88;;;21.50;65.50;;;;;;5134501;27;20019;-38
2021/06/12 10:07:54;;;;;;;15.98;14.30;;;20.90;67.60;;;;;;5135151;27;20047;-37
2021/06/12 10:10:19;;;;;;;22.40;15.25;;;20.50;69.10;;;;;;5135418;27;20388;-38
2021/06/12 10:12:48;;;;;;;19.92;15.45;;;20.40;69.60;;;;;;5134838;27;20099;-36
2021/06/12 10:15:17;;;;;;;22.45;17.48;;;20.40;69.80;;;;;;5134104;27;20028;-37
2021/06/12 10:17:49;;;;;;;26.13;15.40;;;20.40;70.30;;;;;;5133155;27;20104;-37
2021/06/12 10:20:19;;;;;;;22.98;16.25;;;21.20;67.90;;;;;;5134635;27;20034;-36
2021/06/12 10:22:46;;;;;;;17.73;13.48;;;21.90;65.80;;;;;;5134317;27;20015;-37
2021/06/12 10:25:13;;;;;;;16.33;13.38;;;22.60;62.90;;;;;;5134140;27;20112;-37
2021/06/12 10:27:40;;;;;;;16.33;13.52;;;22.40;63.00;;;;;;5133540;27;20033;-41
2021/06/12 10:30:11;;;;;;;19.25;12.45;;;22.80;61.90;;;;;;5135191;27;20030;-36
2021/06/12 10:32:46;;;;;;;16.38;10.98;;;23.70;59.10;;;;;;5134670;27;20019;-38
2021/06/12 10:35:16;;;;;;;12.68;9.95;;;23.90;55.30;;;;;;5134747;27;20466;-37
2021/06/12 10:37:59;;;;;;;15.35;9.50;;;23.40;56.70;;;;;;5134449;27;20482;-37
2021/06/12 10:40:40;;;;;;;14.88;11.10;;;23.80;56.00;;;;;;5134220;27;20075;-38
2021/06/12 10:43:24;;;;;;;15.77;10.98;;;24.50;54.70;;;;;;5133719;27;20106;-36
2021/06/12 10:46:02;;;;;;;17.77;10.35;;;24.00;54.60;;;;;;5132848;28;20019;-38
2021/06/12 10:48:36;;;;;;;16.02;10.93;;;23.60;55.80;;;;;;5133890;27;20038;-36
2021/06/12 10:51:03;;;;;;;15.82;11.10;;;22.80;58.80;;;;;;5133777;28;20031;-38
2021/06/12 10:53:35;;;;;;;11.38;8.80;;;23.20;57.80;;;;;;5133921;27;20019;-37
2021/06/12 10:56:03;;;;;;;11.05;8.32;;;23.60;56.60;;;;;;5133975;27;20102;-37
2021/06/12 10:58:29;;;;;;;10.65;5.45;;;23.30;56.20;;;;;;5133935;27;20015;-37
2021/06/12 11:01:16;;;;;;;10.35;4.07;;;23.10;54.80;;;;;;5134243;28;20030;-37
2021/06/12 11:06:41;;;;;;;3.75;3.45;;;23.30;51.00;;;;;;5139741;27;20442;-37
2021/06/12 11:09:19;;;;;;;8.10;2.88;;;23.70;49.90;;;;;;5140465;27;20066;-37
2021/06/12 11:11:56;;;;;;;3.30;2.80;;;23.50;46.80;;;;;;5137028;27;20026;-38
2021/06/12 11:14:22;;;;;;;6.47;3.33;;;23.10;48.90;;;;;;5136861;27;20386;-38
2021/06/12 11:17:06;;;;;;;6.38;2.80;;;23.20;48.40;;;;;;5139188;27;20026;-36
2021/06/12 11:19:50;;;;;;;9.70;3.17;;;23.70;46.80;;;;;;5137991;27;20023;-35
2021/06/12 11:22:38;;;;;;;4.95;2.90;;;23.50;47.40;;;;;;5137355;27;20106;-35
2021/06/12 11:25:09;;;;;;;13.30;3.50;;;23.60;47.20;;;;;;5137419;27;20075;-36
2021/06/12 11:27:40;;;;;;;4.60;2.72;;;24.20;45.80;;;;;;5136363;27;20023;-36
2021/06/12 11:30:24;;;;;;;8.57;3.08;;;24.80;44.70;;;;;;5137804;27;20031;-35
2021/06/12 11:32:53;;;;;;;4.68;2.60;;;24.70;43.80;;;;;;5137597;27;20028;-35
2021/06/12 11:35:51;;;;;;;5.47;2.78;;;24.30;44.30;;;;;;5137660;27;20023;-36
2021/06/12 11:38:40;;;;;;;5.15;2.88;;;24.50;43.00;;;;;;5080786;27;20027;-36
2021/06/12 11:41:16;;;;;;;4.82;3.35;;;24.70;42.80;;;;;;5126855;27;20046;-36
2021/06/12 11:44:01;;;;;;;4.78;3.55;;;24.10;44.70;;;;;;5137535;27;20355;-35
2021/06/12 11:46:38;;;;;;;5.85;2.75;;;23.80;45.40;;;;;;5137779;27;20034;-40
2021/06/12 11:49:07;;;;;;;5.07;2.95;;;23.30;47.10;;;;;;5137368;27;20075;-36
2021/06/12 11:51:44;;;;;;;6.90;3.47;;;23.10;47.40;;;;;;5137490;27;20030;-35
2021/06/12 11:54:26;;;;;;;5.63;3.55;;;23.10;47.10;;;;;;5137541;27;20136;-36
2021/06/12 11:56:58;;;;;;;5.38;3.00;;;22.30;49.60;;;;;;5137536;27;20027;-36
2021/06/12 11:59:30;;;;;;;5.97;3.30;;;22.50;48.90;;;;;;5137395;27;20046;-37
2021/06/12 12:02:01;;;;;;;4.82;3.30;;;22.70;48.70;;;;;;5137152;27;20035;-35
2021/06/12 12:04:49;;;;;;;9.57;3.97;;;22.70;49.20;;;;;;5137318;27;20024;-35
2021/06/12 12:07:16;;;;;;;7.05;3.38;;;22.90;47.60;;;;;;5137391;27;20031;-35
2021/06/12 12:09:47;;;;;;;5.35;3.50;;;22.80;47.30;;;;;;5136790;27;20439;-35
2021/06/12 12:12:18;;;;;;;7.65;3.40;;;22.80;48.00;;;;;;5137150;27;20038;-36
2021/06/12 12:14:46;;;;;;;9.70;4.05;;;22.70;48.50;;;;;;5135586;27;20023;-35
2021/06/12 12:17:26;;;;;;;9.80;3.70;;;23.00;48.10;;;;;;5134542;27;20031;-36
2021/06/12 12:20:10;;;;;;;8.60;4.43;;;23.00;48.70;;;;;;5118567;27;20023;-36
2021/06/12 12:22:38;;;;;;;14.85;4.43;;;22.70;50.00;;;;;;5136879;27;20486;-35
2021/06/12 12:25:08;;;;;;;10.50;4.32;;;22.60;50.00;;;;;;5136752;27;20070;-36
2021/06/12 12:27:33;;;;;;;6.50;3.78;;;22.60;49.70;;;;;;5136352;27;20098;-35
2021/06/12 12:29:59;;;;;;;7.90;4.13;;;22.80;49.40;;;;;;5136604;27;20106;-36
2021/06/12 12:32:25;;;;;;;7.35;3.92;;;23.00;48.70;;;;;;5136100;27;20032;-36
2021/06/12 12:34:50;;;;;;;8.25;3.50;;;23.40;46.60;;;;;;5137049;27;20024;-35
2021/06/12 12:37:23;;;;;;;7.53;3.38;;;23.40;46.40;;;;;;5136314;27;20034;-36
2021/06/12 12:39:53;;;;;;;8.15;3.50;;;23.30;46.70;;;;;;5136887;27;20030;-34
2021/06/12 12:42:25;;;;;;;13.52;4.45;;;23.30;47.30;;;;;;5136478;27;20027;-36
2021/06/12 12:44:58;;;;;;;10.02;3.75;;;23.10;47.40;;;;;;5136100;27;20031;-35
2021/06/12 12:47:26;;;;;;;10.82;5.38;;;23.30;46.90;;;;;;5136265;27;20335;-34